Time,TemperatureF,DewpointF,PressureIn,WindDirection,WindDirectionDegrees,WindSpeedMPH,WindSpeedGustMPH,Humidity,HourlyPrecipIn,Conditions,Clouds,dailyrainin,SolarRadiationWatts/m^2,SoftwareType,DateUTC
2013-08-07 00:22:00,70.0,70.0,-100.00,ENE,72,1.0,4.0,100,0.00,,,0.00,0.000000,,2013-08-07 05:22:00,
2013-08-07 00:32:00,70.0,70.0,-100.00,ENE,72,1.0,4.0,100,0.00,,,0.00,0.000000,,2013-08-07 05:32:00,
2013-08-07 00:43:00,70.0,70.0,-100.00,ENE,72,1.0,4.0,100,0.00,,,0.00,0.000000,,2013-08-07 05:43:00,
2013-08-07 00:52:00,70.0,70.0,-100.00,ENE,72,1.0,4.0,100,0.00,,,0.00,0.000000,,2013-08-07 05:52:00,
2013-08-07 01:22:00,70.0,70.0,-100.00,WNW,283,1.0,4.0,100,0.00,,,0.00,0.000000,,2013-08-07 06:22:00,
2013-08-07 01:32:00,70.0,70.0,-100.00,WNW,283,1.0,4.0,100,0.00,,,0.00,0.000000,,2013-08-07 06:32:00,
2013-08-07 01:43:00,70.0,70.0,-100.00,WNW,283,1.0,4.0,100,0.00,,,0.00,0.000000,,2013-08-07 06:43:00,
2013-08-07 01:52:00,70.0,70.0,-100.00,WNW,283,1.0,4.0,100,0.00,,,0.00,0.000000,,2013-08-07 06:52:00,
2013-08-07 02:22:00,70.0,70.0,-100.00,NNW,335,2.0,10.0,100,0.00,,,0.00,0.000000,,2013-08-07 07:22:00,
2013-08-07 02:33:00,70.0,70.0,-100.00,NNW,335,2.0,10.0,100,0.00,,,0.00,0.000000,,2013-08-07 07:33:00,
2013-08-07 02:43:00,70.0,70.0,-100.00,NNW,335,2.0,10.0,100,0.00,,,0.00,0.000000,,2013-08-07 07:43:00,
2013-08-07 02:52:00,70.0,70.0,-100.00,NNW,335,2.0,10.0,100,0.00,,,0.00,0.000000,,2013-08-07 07:52:00,
2013-08-07 03:22:00,70.0,70.0,-100.00,North,353,5.0,6.0,100,0.00,,,-99.99,0.000000,,2013-08-07 08:22:00,
2013-08-07 03:32:00,70.0,70.0,-100.00,North,353,5.0,6.0,100,0.00,,,-99.99,0.000000,,2013-08-07 08:32:00,
2013-08-07 03:44:00,70.0,70.0,-100.00,North,353,5.0,6.0,100,0.00,,,-99.99,0.000000,,2013-08-07 08:44:00,
2013-08-07 03:52:00,70.0,70.0,-100.00,North,353,5.0,6.0,100,0.00,,,-99.99,0.000000,,2013-08-07 08:52:00,
2013-08-07 04:22:00,71.0,71.0,-100.00,North,351,5.0,9.0,100,0.00,,,0.00,0.000000,,2013-08-07 09:22:00,
2013-08-07 04:32:00,71.0,71.0,-100.00,North,351,5.0,9.0,100,0.00,,,0.00,0.000000,,2013-08-07 09:32:00,
2013-08-07 04:43:00,71.0,71.0,-100.00,North,351,5.0,9.0,100,0.00,,,0.00,0.000000,,2013-08-07 09:43:00,
2013-08-07 04:54:00,71.0,71.0,-100.00,North,351,5.0,9.0,100,0.00,,,0.00,0.000000,,2013-08-07 09:54:00,
2013-08-07 05:22:00,70.0,70.0,-100.00,North,354,8.0,17.0,100,0.00,,,0.00,0.000000,,2013-08-07 10:22:00,
2013-08-07 05:32:00,70.0,70.0,-100.00,North,354,8.0,17.0,100,0.00,,,0.00,0.000000,,2013-08-07 10:32:00,
2013-08-07 05:43:00,70.0,70.0,-100.00,North,354,8.0,17.0,100,0.00,,,0.00,0.000000,,2013-08-07 10:43:00,
2013-08-07 05:52:00,70.0,70.0,-100.00,North,354,8.0,17.0,100,0.00,,,0.00,0.000000,,2013-08-07 10:52:00,
2013-08-07 06:22:00,69.0,69.0,-100.00,North,6,6.0,11.0,100,0.00,,,0.00,0.000000,,2013-08-07 11:22:00,
2013-08-07 06:32:00,69.0,69.0,-100.00,North,6,6.0,11.0,100,0.00,,,0.00,0.000000,,2013-08-07 11:32:00,
2013-08-07 06:43:00,69.0,69.0,-100.00,North,6,6.0,11.0,100,0.00,,,0.00,0.000000,,2013-08-07 11:43:00,
2013-08-07 06:52:00,69.0,69.0,-100.00,North,6,6.0,11.0,100,0.00,,,0.00,0.000000,,2013-08-07 11:52:00,
2013-08-07 07:22:00,68.0,68.0,-100.00,North,8,5.0,7.0,100,0.00,,,0.00,0.000000,,2013-08-07 12:22:00,
2013-08-07 07:32:00,68.0,68.0,-100.00,North,8,5.0,7.0,100,0.00,,,0.00,0.000000,,2013-08-07 12:32:00,
2013-08-07 07:43:00,68.0,68.0,-100.00,North,8,5.0,7.0,100,0.00,,,0.00,0.000000,,2013-08-07 12:43:00,
2013-08-07 07:52:00,68.0,68.0,-100.00,North,8,5.0,7.0,100,0.00,,,0.00,0.000000,,2013-08-07 12:52:00,
2013-08-07 08:22:00,67.0,67.0,-100.00,NNE,17,5.0,7.0,100,0.00,,,0.00,0.000000,,2013-08-07 13:22:00,
2013-08-07 08:32:00,67.0,67.0,-100.00,NNE,17,5.0,7.0,100,0.00,,,0.00,0.000000,,2013-08-07 13:32:00,
2013-08-07 08:44:00,67.0,67.0,-100.00,NNE,17,5.0,7.0,100,0.00,,,0.00,0.000000,,2013-08-07 13:44:00,
2013-08-07 08:53:00,67.0,67.0,-100.00,NNE,17,5.0,7.0,100,0.00,,,0.00,0.000000,,2013-08-07 13:53:00,
2013-08-07 09:22:00,68.0,67.0,-100.00,NNE,21,8.0,11.0,98,0.00,,,0.00,0.000000,,2013-08-07 14:22:00,
2013-08-07 09:33:00,68.0,67.0,-100.00,NNE,21,8.0,11.0,98,0.00,,,0.00,0.000000,,2013-08-07 14:33:00,
2013-08-07 09:43:00,68.0,67.0,-100.00,NNE,21,8.0,11.0,98,0.00,,,0.00,0.000000,,2013-08-07 14:43:00,
2013-08-07 09:52:00,68.0,67.0,-100.00,NNE,21,8.0,11.0,98,0.00,,,0.00,0.000000,,2013-08-07 14:52:00,
2013-08-07 10:22:00,71.0,66.0,-100.00,NE,44,7.0,12.0,83,0.00,,,0.00,0.000000,,2013-08-07 15:22:00,
2013-08-07 10:33:00,71.0,66.0,-100.00,NE,44,7.0,12.0,83,0.00,,,0.00,0.000000,,2013-08-07 15:33:00,
2013-08-07 10:43:00,71.0,66.0,-100.00,NE,44,7.0,12.0,83,0.00,,,0.00,0.000000,,2013-08-07 15:43:00,
2013-08-07 10:53:00,71.0,66.0,-100.00,NE,44,7.0,12.0,83,0.00,,,0.00,0.000000,,2013-08-07 15:53:00,
2013-08-07 11:22:00,76.0,65.0,-100.00,NE,51,8.0,12.0,70,0.00,,,0.00,0.000000,,2013-08-07 16:22:00,
2013-08-07 11:33:00,76.0,65.0,-100.00,NE,51,8.0,12.0,70,0.00,,,0.00,0.000000,,2013-08-07 16:33:00,
2013-08-07 11:43:00,76.0,65.0,-100.00,NE,51,8.0,12.0,70,0.00,,,0.00,0.000000,,2013-08-07 16:43:00,
2013-08-07 11:52:00,76.0,65.0,-100.00,NE,51,8.0,12.0,70,0.00,,,0.00,0.000000,,2013-08-07 16:52:00,
2013-08-07 12:22:00,78.0,64.0,-100.00,NE,49,10.0,15.0,63,0.00,,,0.00,0.000000,,2013-08-07 17:22:00,
2013-08-07 12:33:00,78.0,64.0,-100.00,NE,49,10.0,15.0,63,0.00,,,0.00,0.000000,,2013-08-07 17:33:00,
2013-08-07 12:43:00,78.0,64.0,-100.00,NE,49,10.0,15.0,63,0.00,,,0.00,0.000000,,2013-08-07 17:43:00,
2013-08-07 12:52:00,78.0,64.0,-100.00,NE,49,10.0,15.0,63,0.00,,,0.00,0.000000,,2013-08-07 17:52:00,
2013-08-07 13:22:00,80.0,63.0,-100.00,NE,47,11.0,18.0,56,0.00,,,0.00,0.000000,,2013-08-07 18:22:00,
2013-08-07 13:32:00,80.0,63.0,-100.00,NE,47,11.0,18.0,56,0.00,,,0.00,0.000000,,2013-08-07 18:32:00,
2013-08-07 13:43:00,80.0,63.0,-100.00,NE,47,11.0,18.0,56,0.00,,,0.00,0.000000,,2013-08-07 18:43:00,
2013-08-07 13:52:00,80.0,63.0,-100.00,NE,47,11.0,18.0,56,0.00,,,0.00,0.000000,,2013-08-07 18:52:00,
2013-08-07 14:22:00,81.0,62.0,-100.00,NE,54,11.0,16.0,53,0.00,,,0.00,0.000000,,2013-08-07 19:22:00,
2013-08-07 14:32:00,81.0,62.0,-100.00,NE,54,11.0,16.0,53,0.00,,,0.00,0.000000,,2013-08-07 19:32:00,
2013-08-07 14:44:00,81.0,62.0,-100.00,NE,54,11.0,16.0,53,0.00,,,0.00,0.000000,,2013-08-07 19:44:00,
2013-08-07 14:52:00,81.0,62.0,-100.00,NE,54,11.0,16.0,53,0.00,,,0.00,0.000000,,2013-08-07 19:52:00,
2013-08-07 15:32:00,82.0,61.0,-100.00,NE,55,11.0,15.0,50,0.00,,,0.00,0.000000,,2013-08-07 20:32:00,
2013-08-07 15:43:00,82.0,61.0,-100.00,NE,55,11.0,15.0,50,0.00,,,0.00,0.000000,,2013-08-07 20:43:00,
2013-08-07 15:52:00,82.0,61.0,-100.00,NE,55,11.0,15.0,50,0.00,,,0.00,0.000000,,2013-08-07 20:52:00,
2013-08-07 16:22:00,82.0,62.0,-100.00,ENE,78,7.0,14.0,51,0.00,,,0.00,0.000000,,2013-08-07 21:22:00,
2013-08-07 16:32:00,82.0,62.0,-100.00,ENE,78,7.0,14.0,51,0.00,,,0.00,0.000000,,2013-08-07 21:32:00,
2013-08-07 16:43:00,82.0,62.0,-100.00,ENE,78,7.0,14.0,51,0.00,,,0.00,0.000000,,2013-08-07 21:43:00,
2013-08-07 16:52:00,82.0,62.0,-100.00,ENE,78,7.0,14.0,51,0.00,,,0.00,0.000000,,2013-08-07 21:52:00,
2013-08-07 17:22:00,81.0,61.0,-100.00,East,85,7.0,12.0,51,0.00,,,0.00,0.000000,,2013-08-07 22:22:00,
2013-08-07 17:32:00,81.0,61.0,-100.00,East,85,7.0,12.0,51,0.00,,,0.00,0.000000,,2013-08-07 22:32:00,
2013-08-07 17:43:00,81.0,61.0,-100.00,East,85,7.0,12.0,51,0.00,,,0.00,0.000000,,2013-08-07 22:43:00,
2013-08-07 17:52:00,81.0,61.0,-100.00,East,85,7.0,12.0,51,0.00,,,0.00,0.000000,,2013-08-07 22:52:00,
2013-08-07 18:22:00,79.0,62.0,-100.00,ESE,117,5.0,9.0,56,0.00,,,0.00,0.000000,,2013-08-07 23:22:00,
2013-08-07 18:32:00,79.0,62.0,-100.00,ESE,117,5.0,9.0,56,0.00,,,0.00,0.000000,,2013-08-07 23:32:00,
2013-08-07 18:43:00,79.0,62.0,-100.00,ESE,117,5.0,9.0,56,0.00,,,0.00,0.000000,,2013-08-07 23:43:00,
2013-08-07 18:52:00,79.0,62.0,-100.00,ESE,117,5.0,9.0,56,0.00,,,0.00,0.000000,,2013-08-07 23:52:00,
2013-08-07 19:22:00,78.0,66.0,-100.00,ESE,120,3.0,6.0,67,0.00,,,0.00,0.000000,,2013-08-08 00:22:00,
2013-08-07 19:32:00,78.0,66.0,-100.00,ESE,120,3.0,6.0,67,0.00,,,0.00,0.000000,,2013-08-08 00:32:00,
2013-08-07 19:42:00,78.0,66.0,-100.00,ESE,120,3.0,6.0,67,0.00,,,0.00,0.000000,,2013-08-08 00:42:00,
2013-08-07 19:52:00,78.0,66.0,-100.00,ESE,120,3.0,6.0,67,0.00,,,0.00,0.000000,,2013-08-08 00:52:00,
2013-08-07 20:22:00,76.0,69.0,-100.00,East,89,0.0,4.0,80,0.00,,,0.00,0.000000,,2013-08-08 01:22:00,
2013-08-07 20:32:00,76.0,69.0,-100.00,East,89,0.0,4.0,80,0.00,,,0.00,0.000000,,2013-08-08 01:32:00,
2013-08-07 20:43:00,76.0,69.0,-100.00,East,89,0.0,4.0,80,0.00,,,0.00,0.000000,,2013-08-08 01:43:00,
2013-08-07 20:52:00,76.0,69.0,-100.00,East,89,0.0,4.0,80,0.00,,,0.00,0.000000,,2013-08-08 01:52:00,
2013-08-07 21:22:00,72.0,68.0,-100.00,NE,38,4.0,5.0,86,0.00,,,0.00,0.000000,,2013-08-08 02:22:00,
2013-08-07 21:32:00,72.0,68.0,-100.00,NE,38,4.0,5.0,86,0.00,,,0.00,0.000000,,2013-08-08 02:32:00,
2013-08-07 21:42:00,72.0,68.0,-100.00,NE,38,4.0,5.0,86,0.00,,,0.00,0.000000,,2013-08-08 02:42:00,
2013-08-07 21:52:00,72.0,68.0,-100.00,NE,38,4.0,5.0,86,0.00,,,0.00,0.000000,,2013-08-08 02:52:00,
2013-08-07 22:22:00,71.0,69.0,-100.00,ENE,63,4.0,6.0,95,0.00,,,-99.99,0.000000,,2013-08-08 03:22:00,
2013-08-07 22:32:00,71.0,69.0,-100.00,ENE,63,4.0,6.0,95,0.00,,,-99.99,0.000000,,2013-08-08 03:32:00,
2013-08-07 22:43:00,71.0,69.0,-100.00,ENE,63,4.0,6.0,95,0.00,,,-99.99,0.000000,,2013-08-08 03:43:00,
2013-08-07 22:52:00,71.0,69.0,-100.00,ENE,63,4.0,6.0,95,0.00,,,-99.99,0.000000,,2013-08-08 03:52:00,
2013-08-07 23:22:00,70.0,70.0,-100.00,NE,54,1.0,6.0,100,0.00,,,0.00,0.000000,,2013-08-08 04:22:00,
2013-08-07 23:33:00,70.0,70.0,-100.00,NE,54,1.0,6.0,100,0.00,,,0.00,0.000000,,2013-08-08 04:33:00,
2013-08-07 23:43:00,70.0,70.0,-100.00,NE,54,1.0,6.0,100,0.00,,,0.00,0.000000,,2013-08-08 04:43:00,
2013-08-07 23:53:00,70.0,70.0,-100.00,NE,54,1.0,6.0,100,0.00,,,0.00,0.000000,,2013-08-08 04:53:00,